sensor_id;sensor_type;location;lat;lon;timestamp;P1;durP1;ratioP1;P2;durP2;ratioP2
23404;SDS011;11875;49.356;2.718;2023-09-08T00:00:55;6.25;;;5.50;;
23404;SDS011;11875;49.356;2.718;2023-09-08T00:03:21;6.10;;;5.50;;
23404;SDS011;11875;49.356;2.718;2023-09-08T00:05:47;8.30;;;5.90;;
23404;SDS011;11875;49.356;2.718;2023-09-08T00:08:13;8.32;;;6.60;;
23404;SDS011;11875;49.356;2.718;2023-09-08T00:10:38;7.43;;;6.53;;
23404;SDS011;11875;49.356;2.718;2023-09-08T00:13:04;7.35;;;6.10;;
23404;SDS011;11875;49.356;2.718;2023-09-08T00:15:30;8.18;;;6.05;;
23404;SDS011;11875;49.356;2.718;2023-09-08T00:17:55;10.82;;;6.13;;
23404;SDS011;11875;49.356;2.718;2023-09-08T00:20:22;10.93;;;5.70;;
23404;SDS011;11875;49.356;2.718;2023-09-08T00:22:47;11.38;;;5.82;;
23404;SDS011;11875;49.356;2.718;2023-09-08T00:25:13;11.25;;;5.57;;
23404;SDS011;11875;49.356;2.718;2023-09-08T00:27:39;7.88;;;5.60;;
23404;SDS011;11875;49.356;2.718;2023-09-08T00:30:05;6.20;;;5.55;;
23404;SDS011;11875;49.356;2.718;2023-09-08T00:32:31;6.50;;;5.90;;
23404;SDS011;11875;49.356;2.718;2023-09-08T00:34:57;12.45;;;5.85;;
23404;SDS011;11875;49.356;2.718;2023-09-08T00:37:22;5.78;;;5.20;;
23404;SDS011;11875;49.356;2.718;2023-09-08T00:39:49;11.75;;;5.90;;
23404;SDS011;11875;49.356;2.718;2023-09-08T00:42:14;8.85;;;5.30;;
23404;SDS011;11875;49.356;2.718;2023-09-08T00:44:40;6.60;;;5.53;;
23404;SDS011;11875;49.356;2.718;2023-09-08T00:47:05;8.00;;;5.82;;
23404;SDS011;11875;49.356;2.718;2023-09-08T00:49:31;6.45;;;5.72;;
23404;SDS011;11875;49.356;2.718;2023-09-08T00:51:57;11.40;;;5.60;;
23404;SDS011;11875;49.356;2.718;2023-09-08T00:54:23;7.38;;;5.72;;
23404;SDS011;11875;49.356;2.718;2023-09-08T00:56:49;8.02;;;5.38;;
23404;SDS011;11875;49.356;2.718;2023-09-08T00:59:20;10.48;;;5.60;;
23404;SDS011;11875;49.356;2.718;2023-09-08T01:01:45;10.20;;;5.82;;
23404;SDS011;11875;49.356;2.718;2023-09-08T01:04:11;8.32;;;5.90;;
23404;SDS011;11875;49.356;2.718;2023-09-08T01:06:37;6.00;;;5.30;;
23404;SDS011;11875;49.356;2.718;2023-09-08T01:09:03;8.00;;;5.78;;
23404;SDS011;11875;49.356;2.718;2023-09-08T01:11:30;9.95;;;5.97;;
23404;SDS011;11875;49.356;2.718;2023-09-08T01:13:56;8.85;;;5.80;;
23404;SDS011;11875;49.356;2.718;2023-09-08T01:16:21;6.60;;;5.55;;
23404;SDS011;11875;49.356;2.718;2023-09-08T01:18:47;9.20;;;5.53;;
23404;SDS011;11875;49.356;2.718;2023-09-08T01:26:58;8.10;;;5.80;;
23404;SDS011;11875;49.356;2.718;2023-09-08T01:29:24;8.30;;;5.57;;
23404;SDS011;11875;49.356;2.718;2023-09-08T01:31:51;6.18;;;5.57;;
23404;SDS011;11875;49.356;2.718;2023-09-08T01:34:17;7.63;;;5.47;;
23404;SDS011;11875;49.356;2.718;2023-09-08T01:36:44;6.95;;;5.30;;
23404;SDS011;11875;49.356;2.718;2023-09-08T01:39:10;6.28;;;5.60;;
23404;SDS011;11875;49.356;2.718;2023-09-08T01:41:36;6.50;;;5.43;;
23404;SDS011;11875;49.356;2.718;2023-09-08T01:44:02;10.02;;;5.57;;
23404;SDS011;11875;49.356;2.718;2023-09-08T01:46:33;12.02;;;6.05;;
23404;SDS011;11875;49.356;2.718;2023-09-08T01:48:59;7.03;;;5.78;;
23404;SDS011;11875;49.356;2.718;2023-09-08T01:51:25;7.43;;;5.97;;
23404;SDS011;11875;49.356;2.718;2023-09-08T01:53:50;6.80;;;5.75;;
23404;SDS011;11875;49.356;2.718;2023-09-08T01:56:16;6.53;;;5.68;;
23404;SDS011;11875;49.356;2.718;2023-09-08T01:58:41;8.98;;;6.07;;
23404;SDS011;11875;49.356;2.718;2023-09-08T02:01:07;6.82;;;5.97;;
23404;SDS011;11875;49.356;2.718;2023-09-08T02:03:33;7.50;;;6.25;;
23404;SDS011;11875;49.356;2.718;2023-09-08T02:05:58;8.70;;;6.20;;
23404;SDS011;11875;49.356;2.718;2023-09-08T02:08:24;10.00;;;6.25;;
23404;SDS011;11875;49.356;2.718;2023-09-08T02:10:49;8.85;;;6.00;;
23404;SDS011;11875;49.356;2.718;2023-09-08T02:13:15;10.32;;;6.80;;
23404;SDS011;11875;49.356;2.718;2023-09-08T02:15:40;6.35;;;5.70;;
23404;SDS011;11875;49.356;2.718;2023-09-08T02:18:07;8.18;;;6.15;;
23404;SDS011;11875;49.356;2.718;2023-09-08T02:20:33;6.95;;;5.85;;
23404;SDS011;11875;49.356;2.718;2023-09-08T02:23:03;7.80;;;5.70;;
23404;SDS011;11875;49.356;2.718;2023-09-08T02:25:30;7.32;;;5.78;;
23404;SDS011;11875;49.356;2.718;2023-09-08T02:27:55;11.38;;;5.88;;
23404;SDS011;11875;49.356;2.718;2023-09-08T02:30:21;6.03;;;5.50;;
23404;SDS011;11875;49.356;2.718;2023-09-08T02:32:47;7.97;;;5.45;;
23404;SDS011;11875;49.356;2.718;2023-09-08T02:35:12;14.55;;;5.90;;
23404;SDS011;11875;49.356;2.718;2023-09-08T02:37:38;13.15;;;5.97;;
23404;SDS011;11875;49.356;2.718;2023-09-08T02:40:04;8.00;;;5.80;;
23404;SDS011;11875;49.356;2.718;2023-09-08T02:42:32;7.70;;;5.40;;
23404;SDS011;11875;49.356;2.718;2023-09-08T02:44:58;6.40;;;5.70;;
23404;SDS011;11875;49.356;2.718;2023-09-08T02:47:24;9.88;;;6.07;;
23404;SDS011;11875;49.356;2.718;2023-09-08T02:49:49;10.32;;;6.07;;
23404;SDS011;11875;49.356;2.718;2023-09-08T02:52:15;8.23;;;6.03;;
23404;SDS011;11875;49.356;2.718;2023-09-08T02:54:40;10.07;;;5.93;;
23404;SDS011;11875;49.356;2.718;2023-09-08T02:57:06;8.45;;;6.10;;
23404;SDS011;11875;49.356;2.718;2023-09-08T02:59:32;8.55;;;5.80;;
23404;SDS011;11875;49.356;2.718;2023-09-08T03:01:57;7.72;;;5.80;;
23404;SDS011;11875;49.356;2.718;2023-09-08T03:04:24;8.55;;;6.10;;
23404;SDS011;11875;49.356;2.718;2023-09-08T03:06:50;9.68;;;6.10;;
23404;SDS011;11875;49.356;2.718;2023-09-08T03:09:15;9.82;;;5.72;;
23404;SDS011;11875;49.356;2.718;2023-09-08T03:11:41;8.18;;;6.05;;
23404;SDS011;11875;49.356;2.718;2023-09-08T03:14:06;7.07;;;6.38;;
23404;SDS011;11875;49.356;2.718;2023-09-08T03:16:32;8.40;;;6.20;;
23404;SDS011;11875;49.356;2.718;2023-09-08T03:18:58;9.52;;;5.70;;
23404;SDS011;11875;49.356;2.718;2023-09-08T03:21:23;6.55;;;5.80;;
23404;SDS011;11875;49.356;2.718;2023-09-08T03:23:49;9.88;;;6.00;;
23404;SDS011;11875;49.356;2.718;2023-09-08T03:26:15;8.13;;;5.90;;
23404;SDS011;11875;49.356;2.718;2023-09-08T03:28:41;10.77;;;5.78;;
23404;SDS011;11875;49.356;2.718;2023-09-08T03:31:07;10.88;;;6.10;;
23404;SDS011;11875;49.356;2.718;2023-09-08T03:33:33;7.63;;;6.00;;
23404;SDS011;11875;49.356;2.718;2023-09-08T03:35:59;7.93;;;6.20;;
23404;SDS011;11875;49.356;2.718;2023-09-08T03:38:25;8.77;;;5.45;;
23404;SDS011;11875;49.356;2.718;2023-09-08T03:40:51;7.80;;;5.50;;
23404;SDS011;11875;49.356;2.718;2023-09-08T03:43:16;9.75;;;6.07;;
23404;SDS011;11875;49.356;2.718;2023-09-08T03:45:42;9.85;;;6.18;;
23404;SDS011;11875;49.356;2.718;2023-09-08T03:48:08;6.70;;;5.82;;
23404;SDS011;11875;49.356;2.718;2023-09-08T03:50:34;6.95;;;5.93;;
23404;SDS011;11875;49.356;2.718;2023-09-08T03:53:00;10.18;;;6.57;;
23404;SDS011;11875;49.356;2.718;2023-09-08T03:55:26;9.15;;;5.70;;
23404;SDS011;11875;49.356;2.718;2023-09-08T03:57:51;11.90;;;5.78;;
23404;SDS011;11875;49.356;2.718;2023-09-08T04:00:17;9.07;;;5.80;;
23404;SDS011;11875;49.356;2.718;2023-09-08T04:02:50;7.95;;;6.07;;
23404;SDS011;11875;49.356;2.718;2023-09-08T04:05:16;7.65;;;5.85;;
23404;SDS011;11875;49.356;2.718;2023-09-08T04:07:43;8.80;;;5.85;;
23404;SDS011;11875;49.356;2.718;2023-09-08T04:10:09;7.43;;;6.57;;
23404;SDS011;11875;49.356;2.718;2023-09-08T04:12:35;10.38;;;5.70;;
23404;SDS011;11875;49.356;2.718;2023-09-08T04:15:01;7.28;;;6.13;;
23404;SDS011;11875;49.356;2.718;2023-09-08T04:17:26;11.10;;;5.60;;
23404;SDS011;11875;49.356;2.718;2023-09-08T04:19:52;9.35;;;6.13;;
23404;SDS011;11875;49.356;2.718;2023-09-08T04:22:17;9.20;;;6.18;;
23404;SDS011;11875;49.356;2.718;2023-09-08T04:24:43;7.60;;;5.35;;
23404;SDS011;11875;49.356;2.718;2023-09-08T04:27:09;10.15;;;6.40;;
23404;SDS011;11875;49.356;2.718;2023-09-08T04:29:35;9.23;;;5.68;;
23404;SDS011;11875;49.356;2.718;2023-09-08T04:32:01;7.90;;;6.00;;
23404;SDS011;11875;49.356;2.718;2023-09-08T04:34:34;8.85;;;5.50;;
23404;SDS011;11875;49.356;2.718;2023-09-08T04:37:04;11.50;;;5.90;;
23404;SDS011;11875;49.356;2.718;2023-09-08T04:39:30;16.42;;;6.00;;
23404;SDS011;11875;49.356;2.718;2023-09-08T04:41:55;7.55;;;5.78;;
23404;SDS011;11875;49.356;2.718;2023-09-08T04:44:21;10.23;;;5.78;;
23404;SDS011;11875;49.356;2.718;2023-09-08T04:46:47;7.97;;;5.90;;
23404;SDS011;11875;49.356;2.718;2023-09-08T04:49:13;8.52;;;5.70;;
23404;SDS011;11875;49.356;2.718;2023-09-08T04:51:38;8.77;;;6.00;;
23404;SDS011;11875;49.356;2.718;2023-09-08T04:54:04;9.65;;;5.95;;
23404;SDS011;11875;49.356;2.718;2023-09-08T04:56:30;6.32;;;5.57;;
23404;SDS011;11875;49.356;2.718;2023-09-08T04:58:55;11.60;;;5.32;;
23404;SDS011;11875;49.356;2.718;2023-09-08T05:01:23;11.88;;;6.25;;
23404;SDS011;11875;49.356;2.718;2023-09-08T05:03:48;10.55;;;5.85;;
23404;SDS011;11875;49.356;2.718;2023-09-08T05:06:14;13.15;;;6.47;;
23404;SDS011;11875;49.356;2.718;2023-09-08T05:08:40;11.60;;;6.60;;
23404;SDS011;11875;49.356;2.718;2023-09-08T05:11:05;13.32;;;7.03;;
23404;SDS011;11875;49.356;2.718;2023-09-08T05:13:31;7.55;;;5.63;;
23404;SDS011;11875;49.356;2.718;2023-09-08T05:15:56;9.13;;;5.82;;
23404;SDS011;11875;49.356;2.718;2023-09-08T05:18:25;8.60;;;6.25;;
23404;SDS011;11875;49.356;2.718;2023-09-08T05:20:51;11.70;;;6.38;;
23404;SDS011;11875;49.356;2.718;2023-09-08T05:23:18;11.82;;;6.07;;
23404;SDS011;11875;49.356;2.718;2023-09-08T05:25:44;12.43;;;6.72;;
23404;SDS011;11875;49.356;2.718;2023-09-08T05:28:10;11.68;;;7.15;;
23404;SDS011;11875;49.356;2.718;2023-09-08T05:30:35;11.07;;;5.88;;
23404;SDS011;11875;49.356;2.718;2023-09-08T05:33:01;10.70;;;6.00;;
23404;SDS011;11875;49.356;2.718;2023-09-08T05:35:27;9.85;;;6.15;;
23404;SDS011;11875;49.356;2.718;2023-09-08T05:37:52;6.97;;;6.28;;
23404;SDS011;11875;49.356;2.718;2023-09-08T05:40:18;11.20;;;6.30;;
23404;SDS011;11875;49.356;2.718;2023-09-08T05:42:45;7.70;;;6.13;;
23404;SDS011;11875;49.356;2.718;2023-09-08T05:45:10;12.68;;;6.00;;
23404;SDS011;11875;49.356;2.718;2023-09-08T05:47:36;14.48;;;6.38;;
23404;SDS011;11875;49.356;2.718;2023-09-08T05:50:02;13.60;;;6.30;;
23404;SDS011;11875;49.356;2.718;2023-09-08T05:52:27;9.70;;;5.90;;
23404;SDS011;11875;49.356;2.718;2023-09-08T05:54:53;11.45;;;6.65;;
23404;SDS011;11875;49.356;2.718;2023-09-08T05:57:19;9.68;;;6.15;;
23404;SDS011;11875;49.356;2.718;2023-09-08T05:59:45;12.38;;;7.38;;
23404;SDS011;11875;49.356;2.718;2023-09-08T06:02:10;13.68;;;9.07;;
23404;SDS011;11875;49.356;2.718;2023-09-08T06:04:36;8.60;;;6.45;;
23404;SDS011;11875;49.356;2.718;2023-09-08T06:07:01;11.05;;;6.75;;
23404;SDS011;11875;49.356;2.718;2023-09-08T06:09:27;10.70;;;6.32;;
23404;SDS011;11875;49.356;2.718;2023-09-08T06:11:53;14.68;;;6.22;;
23404;SDS011;11875;49.356;2.718;2023-09-08T06:14:18;12.02;;;5.53;;
23404;SDS011;11875;49.356;2.718;2023-09-08T06:16:44;14.48;;;6.20;;
23404;SDS011;11875;49.356;2.718;2023-09-08T06:19:11;20.55;;;6.50;;
23404;SDS011;11875;49.356;2.718;2023-09-08T06:21:37;17.27;;;6.50;;
23404;SDS011;11875;49.356;2.718;2023-09-08T06:24:03;11.20;;;5.70;;
23404;SDS011;11875;49.356;2.718;2023-09-08T06:26:28;14.32;;;5.90;;
23404;SDS011;11875;49.356;2.718;2023-09-08T06:28:54;12.02;;;6.07;;
23404;SDS011;11875;49.356;2.718;2023-09-08T06:31:20;9.18;;;5.45;;
23404;SDS011;11875;49.356;2.718;2023-09-08T06:33:45;12.68;;;6.50;;
23404;SDS011;11875;49.356;2.718;2023-09-08T06:36:11;8.25;;;5.97;;
23404;SDS011;11875;49.356;2.718;2023-09-08T06:38:37;6.60;;;5.75;;
23404;SDS011;11875;49.356;2.718;2023-09-08T06:41:08;10.65;;;6.10;;
23404;SDS011;11875;49.356;2.718;2023-09-08T06:43:35;10.02;;;6.75;;
23404;SDS011;11875;49.356;2.718;2023-09-08T06:46:01;11.70;;;5.90;;
23404;SDS011;11875;49.356;2.718;2023-09-08T06:48:26;10.93;;;5.72;;
23404;SDS011;11875;49.356;2.718;2023-09-08T06:50:55;10.75;;;6.43;;
23404;SDS011;11875;49.356;2.718;2023-09-08T06:53:21;16.35;;;6.15;;
23404;SDS011;11875;49.356;2.718;2023-09-08T06:55:48;16.05;;;6.60;;
23404;SDS011;11875;49.356;2.718;2023-09-08T06:58:14;8.20;;;6.55;;
23404;SDS011;11875;49.356;2.718;2023-09-08T07:00:42;7.60;;;5.68;;
23404;SDS011;11875;49.356;2.718;2023-09-08T07:03:08;9.07;;;5.38;;
23404;SDS011;11875;49.356;2.718;2023-09-08T07:05:34;8.00;;;5.57;;
23404;SDS011;11875;49.356;2.718;2023-09-08T07:08:00;13.93;;;6.03;;
23404;SDS011;11875;49.356;2.718;2023-09-08T07:10:25;7.20;;;5.63;;
23404;SDS011;11875;49.356;2.718;2023-09-08T07:12:51;18.25;;;6.50;;
23404;SDS011;11875;49.356;2.718;2023-09-08T07:15:17;12.07;;;6.00;;
23404;SDS011;11875;49.356;2.718;2023-09-08T07:17:43;11.55;;;6.32;;
23404;SDS011;11875;49.356;2.718;2023-09-08T07:20:09;8.73;;;5.43;;
23404;SDS011;11875;49.356;2.718;2023-09-08T07:22:35;7.70;;;5.90;;
23404;SDS011;11875;49.356;2.718;2023-09-08T07:25:00;8.80;;;6.32;;
23404;SDS011;11875;49.356;2.718;2023-09-08T07:27:26;7.57;;;5.43;;
23404;SDS011;11875;49.356;2.718;2023-09-08T07:29:51;8.98;;;5.68;;
23404;SDS011;11875;49.356;2.718;2023-09-08T07:32:17;9.98;;;5.35;;
23404;SDS011;11875;49.356;2.718;2023-09-08T07:34:43;13.10;;;5.22;;
23404;SDS011;11875;49.356;2.718;2023-09-08T07:37:09;34.95;;;6.40;;
23404;SDS011;11875;49.356;2.718;2023-09-08T07:39:35;8.23;;;5.05;;
23404;SDS011;11875;49.356;2.718;2023-09-08T07:42:01;6.72;;;4.50;;
23404;SDS011;11875;49.356;2.718;2023-09-08T07:44:27;14.02;;;4.95;;
23404;SDS011;11875;49.356;2.718;2023-09-08T07:46:52;8.95;;;4.75;;
23404;SDS011;11875;49.356;2.718;2023-09-08T07:49:20;9.30;;;4.57;;
23404;SDS011;11875;49.356;2.718;2023-09-08T07:51:46;8.73;;;4.93;;
23404;SDS011;11875;49.356;2.718;2023-09-08T07:54:12;7.40;;;4.45;;
23404;SDS011;11875;49.356;2.718;2023-09-08T07:56:38;6.70;;;4.35;;
23404;SDS011;11875;49.356;2.718;2023-09-08T07:59:06;6.65;;;4.22;;
23404;SDS011;11875;49.356;2.718;2023-09-08T08:01:31;6.40;;;4.38;;
23404;SDS011;11875;49.356;2.718;2023-09-08T08:03:57;10.60;;;4.55;;
23404;SDS011;11875;49.356;2.718;2023-09-08T08:06:23;7.18;;;4.30;;
23404;SDS011;11875;49.356;2.718;2023-09-08T08:08:49;9.00;;;4.40;;
23404;SDS011;11875;49.356;2.718;2023-09-08T08:11:15;6.85;;;4.10;;
23404;SDS011;11875;49.356;2.718;2023-09-08T08:13:45;15.02;;;4.88;;
23404;SDS011;11875;49.356;2.718;2023-09-08T08:16:11;4.57;;;4.00;;
23404;SDS011;11875;49.356;2.718;2023-09-08T08:18:36;9.63;;;4.00;;
23404;SDS011;11875;49.356;2.718;2023-09-08T08:21:02;10.55;;;3.88;;
23404;SDS011;11875;49.356;2.718;2023-09-08T08:23:28;7.82;;;3.83;;
23404;SDS011;11875;49.356;2.718;2023-09-08T08:25:55;8.35;;;4.63;;
23404;SDS011;11875;49.356;2.718;2023-09-08T08:28:21;8.25;;;3.80;;
23404;SDS011;11875;49.356;2.718;2023-09-08T08:30:47;34.97;;;4.82;;
23404;SDS011;11875;49.356;2.718;2023-09-08T08:33:13;6.80;;;3.70;;
23404;SDS011;11875;49.356;2.718;2023-09-08T08:35:39;4.55;;;3.70;;
23404;SDS011;11875;49.356;2.718;2023-09-08T08:38:04;9.85;;;3.97;;
23404;SDS011;11875;49.356;2.718;2023-09-08T08:40:30;8.75;;;4.15;;
23404;SDS011;11875;49.356;2.718;2023-09-08T08:42:56;6.03;;;3.92;;
23404;SDS011;11875;49.356;2.718;2023-09-08T08:45:26;7.82;;;4.20;;
23404;SDS011;11875;49.356;2.718;2023-09-08T08:47:52;6.95;;;3.83;;
23404;SDS011;11875;49.356;2.718;2023-09-08T08:50:18;10.07;;;4.63;;
23404;SDS011;11875;49.356;2.718;2023-09-08T08:52:44;9.32;;;3.95;;
23404;SDS011;11875;49.356;2.718;2023-09-08T08:55:10;4.63;;;3.13;;
23404;SDS011;11875;49.356;2.718;2023-09-08T08:57:37;9.15;;;3.90;;
23404;SDS011;11875;49.356;2.718;2023-09-08T09:00:05;5.43;;;3.50;;
23404;SDS011;11875;49.356;2.718;2023-09-08T09:02:35;6.00;;;3.33;;
23404;SDS011;11875;49.356;2.718;2023-09-08T09:05:01;7.35;;;3.90;;
23404;SDS011;11875;49.356;2.718;2023-09-08T09:07:28;10.13;;;3.92;;
23404;SDS011;11875;49.356;2.718;2023-09-08T09:09:54;6.25;;;3.47;;
23404;SDS011;11875;49.356;2.718;2023-09-08T09:12:20;13.32;;;3.38;;
23404;SDS011;11875;49.356;2.718;2023-09-08T09:14:47;4.97;;;3.60;;
23404;SDS011;11875;49.356;2.718;2023-09-08T09:17:13;10.43;;;3.30;;
23404;SDS011;11875;49.356;2.718;2023-09-08T09:19:39;12.40;;;3.72;;
23404;SDS011;11875;49.356;2.718;2023-09-08T09:22:06;20.42;;;4.03;;
23404;SDS011;11875;49.356;2.718;2023-09-08T09:24:36;10.20;;;3.88;;
23404;SDS011;11875;49.356;2.718;2023-09-08T09:27:08;7.38;;;3.47;;
23404;SDS011;11875;49.356;2.718;2023-09-08T09:29:35;7.88;;;4.05;;
23404;SDS011;11875;49.356;2.718;2023-09-08T09:32:12;7.72;;;3.33;;
23404;SDS011;11875;49.356;2.718;2023-09-08T09:34:48;6.15;;;3.42;;
23404;SDS011;11875;49.356;2.718;2023-09-08T09:37:16;10.38;;;3.92;;
23404;SDS011;11875;49.356;2.718;2023-09-08T09:39:41;7.07;;;3.30;;
23404;SDS011;11875;49.356;2.718;2023-09-08T09:42:07;4.80;;;3.45;;
23404;SDS011;11875;49.356;2.718;2023-09-08T09:44:33;5.03;;;3.28;;
23404;SDS011;11875;49.356;2.718;2023-09-08T09:47:00;3.83;;;3.05;;
23404;SDS011;11875;49.356;2.718;2023-09-08T09:49:26;12.07;;;4.20;;
23404;SDS011;11875;49.356;2.718;2023-09-08T09:51:56;5.32;;;3.20;;
23404;SDS011;11875;49.356;2.718;2023-09-08T09:54:23;6.40;;;3.30;;
23404;SDS011;11875;49.356;2.718;2023-09-08T09:56:49;7.88;;;3.78;;
23404;SDS011;11875;49.356;2.718;2023-09-08T09:59:17;11.13;;;3.50;;
23404;SDS011;11875;49.356;2.718;2023-09-08T10:01:43;9.38;;;3.95;;
23404;SDS011;11875;49.356;2.718;2023-09-08T10:04:09;13.25;;;3.83;;
23404;SDS011;11875;49.356;2.718;2023-09-08T10:06:36;7.72;;;3.53;;
23404;SDS011;11875;49.356;2.718;2023-09-08T10:09:03;8.18;;;3.47;;
23404;SDS011;11875;49.356;2.718;2023-09-08T10:11:41;13.43;;;4.00;;
23404;SDS011;11875;49.356;2.718;2023-09-08T10:14:11;7.57;;;3.38;;
23404;SDS011;11875;49.356;2.718;2023-09-08T10:16:39;4.05;;;3.33;;
23404;SDS011;11875;49.356;2.718;2023-09-08T10:19:07;9.15;;;3.47;;
23404;SDS011;11875;49.356;2.718;2023-09-08T10:21:36;6.75;;;3.47;;
23404;SDS011;11875;49.356;2.718;2023-09-08T10:27:10;5.35;;;2.92;;
23404;SDS011;11875;49.356;2.718;2023-09-08T10:29:37;4.88;;;3.25;;
23404;SDS011;11875;49.356;2.718;2023-09-08T10:32:03;12.02;;;3.42;;
23404;SDS011;11875;49.356;2.718;2023-09-08T10:34:30;7.57;;;2.97;;
23404;SDS011;11875;49.356;2.718;2023-09-08T10:36:58;12.55;;;3.58;;
23404;SDS011;11875;49.356;2.718;2023-09-08T10:44:42;11.60;;;3.35;;
23404;SDS011;11875;49.356;2.718;2023-09-08T10:47:10;5.50;;;3.00;;
23404;SDS011;11875;49.356;2.718;2023-09-08T10:49:36;4.75;;;2.85;;
23404;SDS011;11875;49.356;2.718;2023-09-08T10:52:10;6.60;;;3.28;;
23404;SDS011;11875;49.356;2.718;2023-09-08T10:57:15;15.15;;;3.10;;
23404;SDS011;11875;49.356;2.718;2023-09-08T11:00:01;8.68;;;3.67;;
23404;SDS011;11875;49.356;2.718;2023-09-08T11:02:40;7.53;;;3.53;;
23404;SDS011;11875;49.356;2.718;2023-09-08T11:05:11;18.75;;;3.35;;
23404;SDS011;11875;49.356;2.718;2023-09-08T11:07:39;8.25;;;3.53;;
23404;SDS011;11875;49.356;2.718;2023-09-08T11:10:06;8.85;;;3.10;;
23404;SDS011;11875;49.356;2.718;2023-09-08T11:12:33;13.77;;;4.38;;
23404;SDS011;11875;49.356;2.718;2023-09-08T11:14:59;10.43;;;3.65;;
23404;SDS011;11875;49.356;2.718;2023-09-08T11:17:30;9.98;;;3.55;;
23404;SDS011;11875;49.356;2.718;2023-09-08T11:19:56;8.77;;;3.42;;
23404;SDS011;11875;49.356;2.718;2023-09-08T11:22:24;11.95;;;3.60;;
23404;SDS011;11875;49.356;2.718;2023-09-08T11:24:55;7.20;;;3.42;;
23404;SDS011;11875;49.356;2.718;2023-09-08T11:27:25;8.65;;;3.35;;
23404;SDS011;11875;49.356;2.718;2023-09-08T11:29:52;8.15;;;3.47;;
23404;SDS011;11875;49.356;2.718;2023-09-08T11:32:18;10.30;;;3.30;;
23404;SDS011;11875;49.356;2.718;2023-09-08T11:34:44;11.38;;;3.60;;
23404;SDS011;11875;49.356;2.718;2023-09-08T11:39:41;9.55;;;3.25;;
23404;SDS011;11875;49.356;2.718;2023-09-08T11:42:11;9.82;;;3.80;;
23404;SDS011;11875;49.356;2.718;2023-09-08T11:44:39;15.18;;;3.67;;
23404;SDS011;11875;49.356;2.718;2023-09-08T11:47:09;9.82;;;3.22;;
23404;SDS011;11875;49.356;2.718;2023-09-08T11:49:39;10.95;;;3.42;;
23404;SDS011;11875;49.356;2.718;2023-09-08T11:52:05;6.05;;;3.00;;
23404;SDS011;11875;49.356;2.718;2023-09-08T11:54:32;8.23;;;3.17;;
23404;SDS011;11875;49.356;2.718;2023-09-08T11:56:59;5.43;;;3.20;;
23404;SDS011;11875;49.356;2.718;2023-09-08T11:59:27;9.05;;;3.00;;
23404;SDS011;11875;49.356;2.718;2023-09-08T12:01:53;4.93;;;3.22;;
23404;SDS011;11875;49.356;2.718;2023-09-08T12:04:20;11.45;;;2.90;;
23404;SDS011;11875;49.356;2.718;2023-09-08T12:06:46;9.88;;;3.25;;
23404;SDS011;11875;49.356;2.718;2023-09-08T12:09:16;9.13;;;3.10;;
23404;SDS011;11875;49.356;2.718;2023-09-08T12:11:42;9.32;;;3.00;;
23404;SDS011;11875;49.356;2.718;2023-09-08T12:14:11;9.23;;;4.57;;
23404;SDS011;11875;49.356;2.718;2023-09-08T12:16:39;12.48;;;3.28;;
23404;SDS011;11875;49.356;2.718;2023-09-08T12:19:05;20.55;;;3.75;;
23404;SDS011;11875;49.356;2.718;2023-09-08T12:21:34;8.88;;;3.30;;
23404;SDS011;11875;49.356;2.718;2023-09-08T12:24:18;8.90;;;3.55;;
23404;SDS011;11875;49.356;2.718;2023-09-08T12:26:44;8.48;;;3.15;;
23404;SDS011;11875;49.356;2.718;2023-09-08T12:29:12;11.98;;;3.50;;
23404;SDS011;11875;49.356;2.718;2023-09-08T12:31:38;11.82;;;3.20;;
23404;SDS011;11875;49.356;2.718;2023-09-08T12:34:04;13.45;;;4.05;;
23404;SDS011;11875;49.356;2.718;2023-09-08T12:36:30;13.48;;;3.83;;
23404;SDS011;11875;49.356;2.718;2023-09-08T12:38:55;7.45;;;3.53;;
23404;SDS011;11875;49.356;2.718;2023-09-08T12:41:21;13.93;;;3.53;;
23404;SDS011;11875;49.356;2.718;2023-09-08T12:43:47;8.57;;;3.35;;
23404;SDS011;11875;49.356;2.718;2023-09-08T12:46:12;9.70;;;2.92;;
23404;SDS011;11875;49.356;2.718;2023-09-08T12:48:38;11.35;;;2.95;;
23404;SDS011;11875;49.356;2.718;2023-09-08T12:51:03;11.80;;;3.22;;
23404;SDS011;11875;49.356;2.718;2023-09-08T12:53:32;10.15;;;4.20;;
23404;SDS011;11875;49.356;2.718;2023-09-08T12:56:00;5.15;;;2.88;;
23404;SDS011;11875;49.356;2.718;2023-09-08T12:58:25;8.77;;;3.08;;
23404;SDS011;11875;49.356;2.718;2023-09-08T13:00:52;9.38;;;3.60;;
23404;SDS011;11875;49.356;2.718;2023-09-08T13:03:18;7.30;;;2.92;;
23404;SDS011;11875;49.356;2.718;2023-09-08T13:05:43;11.45;;;3.63;;
23404;SDS011;11875;49.356;2.718;2023-09-08T13:08:09;8.85;;;3.42;;
23404;SDS011;11875;49.356;2.718;2023-09-08T13:10:36;12.27;;;3.53;;
23404;SDS011;11875;49.356;2.718;2023-09-08T13:13:02;8.10;;;3.25;;
23404;SDS011;11875;49.356;2.718;2023-09-08T13:15:29;8.68;;;3.47;;
23404;SDS011;11875;49.356;2.718;2023-09-08T13:17:54;6.60;;;3.20;;
23404;SDS011;11875;49.356;2.718;2023-09-08T13:20:20;5.70;;;3.15;;
23404;SDS011;11875;49.356;2.718;2023-09-08T13:22:46;4.55;;;3.15;;
23404;SDS011;11875;49.356;2.718;2023-09-08T13:25:12;5.25;;;3.08;;
23404;SDS011;11875;49.356;2.718;2023-09-08T13:27:39;8.57;;;3.10;;
23404;SDS011;11875;49.356;2.718;2023-09-08T13:30:10;33.42;;;4.50;;
23404;SDS011;11875;49.356;2.718;2023-09-08T13:32:37;11.95;;;3.60;;
23404;SDS011;11875;49.356;2.718;2023-09-08T13:35:03;10.18;;;2.78;;
23404;SDS011;11875;49.356;2.718;2023-09-08T13:37:30;10.80;;;4.07;;
23404;SDS011;11875;49.356;2.718;2023-09-08T13:39:56;10.05;;;3.40;;
23404;SDS011;11875;49.356;2.718;2023-09-08T13:42:21;11.88;;;3.40;;
23404;SDS011;11875;49.356;2.718;2023-09-08T13:44:48;8.57;;;3.25;;
23404;SDS011;11875;49.356;2.718;2023-09-08T13:47:13;12.63;;;4.00;;
23404;SDS011;11875;49.356;2.718;2023-09-08T13:49:39;8.90;;;3.13;;
23404;SDS011;11875;49.356;2.718;2023-09-08T13:52:04;8.02;;;3.70;;
23404;SDS011;11875;49.356;2.718;2023-09-08T13:54:31;6.20;;;3.33;;
23404;SDS011;11875;49.356;2.718;2023-09-08T13:56:58;9.05;;;3.80;;
23404;SDS011;11875;49.356;2.718;2023-09-08T13:59:26;8.57;;;3.40;;
23404;SDS011;11875;49.356;2.718;2023-09-08T14:01:53;4.80;;;3.10;;
23404;SDS011;11875;49.356;2.718;2023-09-08T14:04:19;6.53;;;3.50;;
23404;SDS011;11875;49.356;2.718;2023-09-08T14:06:44;13.55;;;6.95;;
23404;SDS011;11875;49.356;2.718;2023-09-08T14:09:10;13.70;;;4.68;;
23404;SDS011;11875;49.356;2.718;2023-09-08T14:11:36;15.07;;;4.50;;
23404;SDS011;11875;49.356;2.718;2023-09-08T14:14:02;14.40;;;3.90;;
23404;SDS011;11875;49.356;2.718;2023-09-08T14:16:28;4.72;;;3.05;;
23404;SDS011;11875;49.356;2.718;2023-09-08T14:18:54;10.27;;;4.00;;
23404;SDS011;11875;49.356;2.718;2023-09-08T14:21:20;11.65;;;3.80;;
23404;SDS011;11875;49.356;2.718;2023-09-08T14:23:46;4.95;;;3.13;;
23404;SDS011;11875;49.356;2.718;2023-09-08T14:26:11;6.22;;;3.72;;
23404;SDS011;11875;49.356;2.718;2023-09-08T14:28:37;10.20;;;3.92;;
23404;SDS011;11875;49.356;2.718;2023-09-08T14:31:03;13.52;;;3.65;;
23404;SDS011;11875;49.356;2.718;2023-09-08T14:33:29;9.48;;;3.58;;
23404;SDS011;11875;49.356;2.718;2023-09-08T14:35:54;9.10;;;3.17;;
23404;SDS011;11875;49.356;2.718;2023-09-08T14:38:21;10.20;;;3.50;;
23404;SDS011;11875;49.356;2.718;2023-09-08T14:41:00;9.23;;;3.30;;
23404;SDS011;11875;49.356;2.718;2023-09-08T14:43:27;9.20;;;3.47;;
23404;SDS011;11875;49.356;2.718;2023-09-08T14:45:53;9.60;;;3.45;;
23404;SDS011;11875;49.356;2.718;2023-09-08T14:48:19;10.85;;;3.53;;
23404;SDS011;11875;49.356;2.718;2023-09-08T14:50:45;9.80;;;3.78;;
23404;SDS011;11875;49.356;2.718;2023-09-08T14:53:11;7.20;;;3.53;;
23404;SDS011;11875;49.356;2.718;2023-09-08T14:55:37;6.68;;;3.40;;
23404;SDS011;11875;49.356;2.718;2023-09-08T14:58:03;4.97;;;3.20;;